sensor_id;sensor_type;location;lat;lon;timestamp;temperature;humidity
21425;DHT22;10873;51.132;16.848;2022-08-27T00:02:18;29.50;66.60
21425;DHT22;10873;51.132;16.848;2022-08-27T00:04:45;29.50;66.50
21425;DHT22;10873;51.132;16.848;2022-08-27T00:07:12;29.50;66.50
21425;DHT22;10873;51.132;16.848;2022-08-27T00:09:39;29.50;66.60
21425;DHT22;10873;51.132;16.848;2022-08-27T00:12:06;29.50;66.60
21425;DHT22;10873;51.132;16.848;2022-08-27T00:14:34;29.50;66.60
21425;DHT22;10873;51.132;16.848;2022-08-27T00:17:02;29.50;66.50
21425;DHT22;10873;51.132;16.848;2022-08-27T00:19:30;29.50;66.50
21425;DHT22;10873;51.132;16.848;2022-08-27T00:21:57;29.50;66.40
21425;DHT22;10873;51.132;16.848;2022-08-27T00:24:23;29.50;66.50
21425;DHT22;10873;51.132;16.848;2022-08-27T00:26:49;29.50;66.40
21425;DHT22;10873;51.132;16.848;2022-08-27T00:29:18;29.50;66.30
21425;DHT22;10873;51.132;16.848;2022-08-27T00:31:44;29.50;66.20
21425;DHT22;10873;51.132;16.848;2022-08-27T00:34:11;29.50;66.70
21425;DHT22;10873;51.132;16.848;2022-08-27T00:36:37;29.50;66.90
21425;DHT22;10873;51.132;16.848;2022-08-27T00:39:04;29.50;67.00
21425;DHT22;10873;51.132;16.848;2022-08-27T00:41:30;29.40;67.10
21425;DHT22;10873;51.132;16.848;2022-08-27T00:43:59;29.40;67.00
21425;DHT22;10873;51.132;16.848;2022-08-27T00:46:28;29.30;66.90
21425;DHT22;10873;51.132;16.848;2022-08-27T00:48:59;29.30;66.80
21425;DHT22;10873;51.132;16.848;2022-08-27T00:51:29;29.30;67.00
21425;DHT22;10873;51.132;16.848;2022-08-27T00:53:57;29.20;67.30
21425;DHT22;10873;51.132;16.848;2022-08-27T00:56:26;29.20;67.50
21425;DHT22;10873;51.132;16.848;2022-08-27T00:58:54;29.20;67.60
21425;DHT22;10873;51.132;16.848;2022-08-27T01:01:24;29.20;67.50
21425;DHT22;10873;51.132;16.848;2022-08-27T01:03:54;29.10;67.70
21425;DHT22;10873;51.132;16.848;2022-08-27T01:06:22;29.10;67.70
21425;DHT22;10873;51.132;16.848;2022-08-27T01:08:55;29.10;65.70
21425;DHT22;10873;51.132;16.848;2022-08-27T01:11:34;29.10;65.20
21425;DHT22;10873;51.132;16.848;2022-08-27T01:14:02;29.00;65.10
21425;DHT22;10873;51.132;16.848;2022-08-27T01:16:31;29.00;66.00
21425;DHT22;10873;51.132;16.848;2022-08-27T01:18:59;29.00;66.70
21425;DHT22;10873;51.132;16.848;2022-08-27T01:21:29;28.90;67.20
21425;DHT22;10873;51.132;16.848;2022-08-27T01:24:03;28.90;67.30
21425;DHT22;10873;51.132;16.848;2022-08-27T01:26:32;28.80;67.40
21425;DHT22;10873;51.132;16.848;2022-08-27T01:28:59;28.80;67.60
21425;DHT22;10873;51.132;16.848;2022-08-27T01:31:25;28.80;67.80
21425;DHT22;10873;51.132;16.848;2022-08-27T01:33:57;28.80;67.80
21425;DHT22;10873;51.132;16.848;2022-08-27T01:36:24;28.70;67.80
21425;DHT22;10873;51.132;16.848;2022-08-27T01:38:50;28.70;67.90
21425;DHT22;10873;51.132;16.848;2022-08-27T01:41:18;28.70;68.00
21425;DHT22;10873;51.132;16.848;2022-08-27T01:43:47;28.70;68.00
21425;DHT22;10873;51.132;16.848;2022-08-27T01:46:13;28.70;68.10
21425;DHT22;10873;51.132;16.848;2022-08-27T01:48:39;28.60;68.10
21425;DHT22;10873;51.132;16.848;2022-08-27T01:51:06;28.60;68.10
21425;DHT22;10873;51.132;16.848;2022-08-27T01:53:33;28.60;68.10
21425;DHT22;10873;51.132;16.848;2022-08-27T01:55:59;28.60;68.20
21425;DHT22;10873;51.132;16.848;2022-08-27T01:58:27;28.60;68.20
21425;DHT22;10873;51.132;16.848;2022-08-27T02:00:57;28.60;68.20
21425;DHT22;10873;51.132;16.848;2022-08-27T02:03:24;28.60;68.30
21425;DHT22;10873;51.132;16.848;2022-08-27T02:05:52;28.50;68.30
21425;DHT22;10873;51.132;16.848;2022-08-27T02:08:18;28.50;68.30
21425;DHT22;10873;51.132;16.848;2022-08-27T02:10:46;28.50;68.30
21425;DHT22;10873;51.132;16.848;2022-08-27T02:13:13;28.50;68.30
21425;DHT22;10873;51.132;16.848;2022-08-27T02:15:41;28.50;68.30
21425;DHT22;10873;51.132;16.848;2022-08-27T02:18:10;28.50;68.40
21425;DHT22;10873;51.132;16.848;2022-08-27T02:20:36;28.40;68.30
21425;DHT22;10873;51.132;16.848;2022-08-27T02:23:03;28.40;68.30
21425;DHT22;10873;51.132;16.848;2022-08-27T02:25:29;28.40;68.30
21425;DHT22;10873;51.132;16.848;2022-08-27T02:27:56;28.40;68.30
21425;DHT22;10873;51.132;16.848;2022-08-27T02:30:25;28.40;68.40
21425;DHT22;10873;51.132;16.848;2022-08-27T02:32:51;28.40;68.40
21425;DHT22;10873;51.132;16.848;2022-08-27T02:35:21;28.40;68.40
21425;DHT22;10873;51.132;16.848;2022-08-27T02:37:47;28.40;68.50
21425;DHT22;10873;51.132;16.848;2022-08-27T02:40:16;28.40;68.50
21425;DHT22;10873;51.132;16.848;2022-08-27T02:42:44;28.30;68.40
21425;DHT22;10873;51.132;16.848;2022-08-27T02:45:10;28.30;68.40
21425;DHT22;10873;51.132;16.848;2022-08-27T02:47:37;28.30;68.40
21425;DHT22;10873;51.132;16.848;2022-08-27T02:50:04;28.30;68.40
21425;DHT22;10873;51.132;16.848;2022-08-27T02:52:32;28.30;68.40
21425;DHT22;10873;51.132;16.848;2022-08-27T02:54:58;28.30;68.40
21425;DHT22;10873;51.132;16.848;2022-08-27T02:57:25;28.30;68.40
21425;DHT22;10873;51.132;16.848;2022-08-27T02:59:52;28.30;68.40
21425;DHT22;10873;51.132;16.848;2022-08-27T03:02:19;28.30;68.40
21425;DHT22;10873;51.132;16.848;2022-08-27T03:04:46;28.30;68.30
21425;DHT22;10873;51.132;16.848;2022-08-27T03:07:12;28.30;68.40
21425;DHT22;10873;51.132;16.848;2022-08-27T03:09:39;28.30;68.40
21425;DHT22;10873;51.132;16.848;2022-08-27T03:12:06;28.30;68.40
21425;DHT22;10873;51.132;16.848;2022-08-27T03:14:32;28.20;68.30
21425;DHT22;10873;51.132;16.848;2022-08-27T03:16:58;28.20;68.30
21425;DHT22;10873;51.132;16.848;2022-08-27T03:19:44;28.20;68.30
21425;DHT22;10873;51.132;16.848;2022-08-27T03:22:10;28.20;68.30
21425;DHT22;10873;51.132;16.848;2022-08-27T03:24:38;28.20;68.30
21425;DHT22;10873;51.132;16.848;2022-08-27T03:27:05;28.20;68.30
21425;DHT22;10873;51.132;16.848;2022-08-27T03:29:31;28.20;68.30
21425;DHT22;10873;51.132;16.848;2022-08-27T03:31:59;28.20;68.30
21425;DHT22;10873;51.132;16.848;2022-08-27T03:34:26;28.20;68.30
21425;DHT22;10873;51.132;16.848;2022-08-27T03:36:52;28.20;68.30
21425;DHT22;10873;51.132;16.848;2022-08-27T03:39:18;28.20;68.40
21425;DHT22;10873;51.132;16.848;2022-08-27T03:41:46;28.20;68.30
21425;DHT22;10873;51.132;16.848;2022-08-27T03:44:12;28.20;68.40
21425;DHT22;10873;51.132;16.848;2022-08-27T03:46:38;28.20;68.40
21425;DHT22;10873;51.132;16.848;2022-08-27T03:49:04;28.20;68.40
21425;DHT22;10873;51.132;16.848;2022-08-27T04:07:03;28.20;68.80
21425;DHT22;10873;51.132;16.848;2022-08-27T04:09:30;28.20;68.80
21425;DHT22;10873;51.132;16.848;2022-08-27T04:11:56;28.20;68.80
21425;DHT22;10873;51.132;16.848;2022-08-27T04:14:22;28.20;68.90
21425;DHT22;10873;51.132;16.848;2022-08-27T04:16:49;28.20;68.90
21425;DHT22;10873;51.132;16.848;2022-08-27T04:19:15;28.20;69.00
21425;DHT22;10873;51.132;16.848;2022-08-27T04:21:41;28.10;69.00
21425;DHT22;10873;51.132;16.848;2022-08-27T04:24:09;28.10;69.00
21425;DHT22;10873;51.132;16.848;2022-08-27T04:26:38;28.10;69.00
21425;DHT22;10873;51.132;16.848;2022-08-27T04:29:04;28.10;69.10
21425;DHT22;10873;51.132;16.848;2022-08-27T04:31:30;28.10;69.20
21425;DHT22;10873;51.132;16.848;2022-08-27T04:33:56;28.10;69.20
21425;DHT22;10873;51.132;16.848;2022-08-27T04:36:22;28.10;69.20
21425;DHT22;10873;51.132;16.848;2022-08-27T04:38:49;28.10;69.30
21425;DHT22;10873;51.132;16.848;2022-08-27T04:41:16;28.10;69.40
21425;DHT22;10873;51.132;16.848;2022-08-27T04:43:47;28.10;69.40
21425;DHT22;10873;51.132;16.848;2022-08-27T04:46:17;28.10;69.40
21425;DHT22;10873;51.132;16.848;2022-08-27T04:48:43;28.10;69.50
21425;DHT22;10873;51.132;16.848;2022-08-27T04:51:09;28.10;69.50
21425;DHT22;10873;51.132;16.848;2022-08-27T04:53:36;28.10;69.50
21425;DHT22;10873;51.132;16.848;2022-08-27T04:56:02;28.10;69.50
21425;DHT22;10873;51.132;16.848;2022-08-27T04:58:30;28.10;69.60
21425;DHT22;10873;51.132;16.848;2022-08-27T05:00:57;28.10;69.60
21425;DHT22;10873;51.132;16.848;2022-08-27T05:03:27;28.10;69.70
21425;DHT22;10873;51.132;16.848;2022-08-27T05:05:59;28.10;69.80
21425;DHT22;10873;51.132;16.848;2022-08-27T05:08:25;28.10;69.70
21425;DHT22;10873;51.132;16.848;2022-08-27T05:10:51;28.10;69.70
21425;DHT22;10873;51.132;16.848;2022-08-27T05:13:19;28.10;69.80
21425;DHT22;10873;51.132;16.848;2022-08-27T05:15:46;28.10;69.80
21425;DHT22;10873;51.132;16.848;2022-08-27T05:18:13;28.10;69.80
21425;DHT22;10873;51.132;16.848;2022-08-27T05:20:42;28.10;69.80
21425;DHT22;10873;51.132;16.848;2022-08-27T05:23:08;28.10;69.80
21425;DHT22;10873;51.132;16.848;2022-08-27T05:25:37;28.10;69.90
21425;DHT22;10873;51.132;16.848;2022-08-27T05:28:04;28.10;69.90
21425;DHT22;10873;51.132;16.848;2022-08-27T05:30:34;28.10;69.90
21425;DHT22;10873;51.132;16.848;2022-08-27T05:33:02;28.10;69.90
21425;DHT22;10873;51.132;16.848;2022-08-27T05:35:28;28.10;69.90
21425;DHT22;10873;51.132;16.848;2022-08-27T05:37:56;28.10;70.00
21425;DHT22;10873;51.132;16.848;2022-08-27T05:40:22;28.10;70.00
21425;DHT22;10873;51.132;16.848;2022-08-27T05:42:48;28.10;70.00
21425;DHT22;10873;51.132;16.848;2022-08-27T05:45:14;28.10;70.00
21425;DHT22;10873;51.132;16.848;2022-08-27T05:47:41;28.10;70.00
21425;DHT22;10873;51.132;16.848;2022-08-27T05:50:09;28.10;70.00
21425;DHT22;10873;51.132;16.848;2022-08-27T05:52:35;28.10;70.00
21425;DHT22;10873;51.132;16.848;2022-08-27T05:55:01;28.20;70.10
21425;DHT22;10873;51.132;16.848;2022-08-27T05:57:27;28.20;70.10
21425;DHT22;10873;51.132;16.848;2022-08-27T05:59:54;28.20;70.10
21425;DHT22;10873;51.132;16.848;2022-08-27T06:02:39;28.20;70.10
21425;DHT22;10873;51.132;16.848;2022-08-27T06:05:06;28.20;70.10
21425;DHT22;10873;51.132;16.848;2022-08-27T06:07:33;28.20;70.10
21425;DHT22;10873;51.132;16.848;2022-08-27T06:09:59;28.20;70.10
21425;DHT22;10873;51.132;16.848;2022-08-27T06:12:26;28.20;70.10
21425;DHT22;10873;51.132;16.848;2022-08-27T06:14:52;28.20;70.10
21425;DHT22;10873;51.132;16.848;2022-08-27T06:17:18;28.20;70.10
21425;DHT22;10873;51.132;16.848;2022-08-27T06:19:44;28.20;70.20
21425;DHT22;10873;51.132;16.848;2022-08-27T06:22:10;28.20;70.20
21425;DHT22;10873;51.132;16.848;2022-08-27T06:24:38;28.20;70.20
21425;DHT22;10873;51.132;16.848;2022-08-27T06:27:05;28.20;70.10
21425;DHT22;10873;51.132;16.848;2022-08-27T06:29:33;28.20;70.20
21425;DHT22;10873;51.132;16.848;2022-08-27T06:31:59;28.20;70.30
21425;DHT22;10873;51.132;16.848;2022-08-27T06:34:25;28.20;70.20
21425;DHT22;10873;51.132;16.848;2022-08-27T06:36:51;28.20;70.10
21425;DHT22;10873;51.132;16.848;2022-08-27T06:39:19;28.20;70.20
21425;DHT22;10873;51.132;16.848;2022-08-27T06:41:47;28.20;70.20
21425;DHT22;10873;51.132;16.848;2022-08-27T06:44:15;28.20;70.20
21425;DHT22;10873;51.132;16.848;2022-08-27T06:46:41;28.20;70.30
21425;DHT22;10873;51.132;16.848;2022-08-27T06:49:08;28.20;70.30
21425;DHT22;10873;51.132;16.848;2022-08-27T06:51:35;28.20;70.40
21425;DHT22;10873;51.132;16.848;2022-08-27T06:54:06;28.20;70.30
21425;DHT22;10873;51.132;16.848;2022-08-27T06:56:32;28.20;70.30
21425;DHT22;10873;51.132;16.848;2022-08-27T06:59:02;28.20;70.30
21425;DHT22;10873;51.132;16.848;2022-08-27T07:01:30;28.20;70.30
21425;DHT22;10873;51.132;16.848;2022-08-27T07:04:00;28.20;70.30
21425;DHT22;10873;51.132;16.848;2022-08-27T07:06:28;28.20;70.30
21425;DHT22;10873;51.132;16.848;2022-08-27T07:08:54;28.20;70.30
21425;DHT22;10873;51.132;16.848;2022-08-27T07:11:22;28.20;70.30
21425;DHT22;10873;51.132;16.848;2022-08-27T07:13:48;28.20;70.40
21425;DHT22;10873;51.132;16.848;2022-08-27T07:16:18;28.20;70.30
21425;DHT22;10873;51.132;16.848;2022-08-27T07:18:45;28.20;70.40
21425;DHT22;10873;51.132;16.848;2022-08-27T07:21:11;28.30;70.40
21425;DHT22;10873;51.132;16.848;2022-08-27T07:23:38;28.20;70.30
21425;DHT22;10873;51.132;16.848;2022-08-27T07:26:06;28.20;70.30
21425;DHT22;10873;51.132;16.848;2022-08-27T07:28:32;28.20;71.20
21425;DHT22;10873;51.132;16.848;2022-08-27T07:30:58;28.20;70.40
21425;DHT22;10873;51.132;16.848;2022-08-27T07:33:26;28.20;70.40
21425;DHT22;10873;51.132;16.848;2022-08-27T07:35:52;28.30;70.50
21425;DHT22;10873;51.132;16.848;2022-08-27T07:38:18;28.20;70.40
21425;DHT22;10873;51.132;16.848;2022-08-27T07:40:44;28.20;70.40
21425;DHT22;10873;51.132;16.848;2022-08-27T07:43:10;28.20;70.40
21425;DHT22;10873;51.132;16.848;2022-08-27T07:45:55;28.20;70.50
21425;DHT22;10873;51.132;16.848;2022-08-27T07:48:23;28.20;70.40
21425;DHT22;10873;51.132;16.848;2022-08-27T07:50:51;28.20;70.40
21425;DHT22;10873;51.132;16.848;2022-08-27T07:53:18;28.20;70.40
21425;DHT22;10873;51.132;16.848;2022-08-27T07:55:44;28.20;70.50
21425;DHT22;10873;51.132;16.848;2022-08-27T07:58:10;28.20;70.50
21425;DHT22;10873;51.132;16.848;2022-08-27T08:00:36;28.20;70.50
21425;DHT22;10873;51.132;16.848;2022-08-27T08:03:03;28.30;70.70
21425;DHT22;10873;51.132;16.848;2022-08-27T08:05:29;28.20;70.50
21425;DHT22;10873;51.132;16.848;2022-08-27T08:07:56;28.20;70.50
21425;DHT22;10873;51.132;16.848;2022-08-27T08:10:22;28.30;70.60
21425;DHT22;10873;51.132;16.848;2022-08-27T08:12:49;28.20;70.50
21425;DHT22;10873;51.132;16.848;2022-08-27T08:15:17;28.20;70.50
21425;DHT22;10873;51.132;16.848;2022-08-27T08:17:43;28.20;70.50
21425;DHT22;10873;51.132;16.848;2022-08-27T08:20:10;28.20;70.50
21425;DHT22;10873;51.132;16.848;2022-08-27T08:22:37;28.20;70.50
21425;DHT22;10873;51.132;16.848;2022-08-27T08:25:05;28.20;70.60
21425;DHT22;10873;51.132;16.848;2022-08-27T08:27:32;28.20;70.60
21425;DHT22;10873;51.132;16.848;2022-08-27T08:29:58;28.20;70.60
21425;DHT22;10873;51.132;16.848;2022-08-27T08:32:24;28.20;70.60
21425;DHT22;10873;51.132;16.848;2022-08-27T08:34:50;28.20;70.60
21425;DHT22;10873;51.132;16.848;2022-08-27T08:37:17;28.20;70.60
21425;DHT22;10873;51.132;16.848;2022-08-27T08:39:43;28.20;70.70
21425;DHT22;10873;51.132;16.848;2022-08-27T08:42:24;28.20;70.70
21425;DHT22;10873;51.132;16.848;2022-08-27T08:44:53;28.20;70.70
21425;DHT22;10873;51.132;16.848;2022-08-27T08:47:24;28.20;70.70
21425;DHT22;10873;51.132;16.848;2022-08-27T08:49:53;28.20;70.70
21425;DHT22;10873;51.132;16.848;2022-08-27T08:52:31;28.20;70.70
21425;DHT22;10873;51.132;16.848;2022-08-27T08:55:08;28.20;70.70
21425;DHT22;10873;51.132;16.848;2022-08-27T08:57:44;28.20;70.70
21425;DHT22;10873;51.132;16.848;2022-08-27T09:00:13;28.20;70.70
21425;DHT22;10873;51.132;16.848;2022-08-27T09:02:41;28.20;70.70
21425;DHT22;10873;51.132;16.848;2022-08-27T09:05:10;28.20;70.70
21425;DHT22;10873;51.132;16.848;2022-08-27T09:07:42;28.20;70.80
21425;DHT22;10873;51.132;16.848;2022-08-27T09:10:16;28.20;70.90
21425;DHT22;10873;51.132;16.848;2022-08-27T09:12:47;28.20;70.90
21425;DHT22;10873;51.132;16.848;2022-08-27T09:15:15;28.20;70.90
21425;DHT22;10873;51.132;16.848;2022-08-27T09:17:42;28.20;70.90
21425;DHT22;10873;51.132;16.848;2022-08-27T09:20:09;28.20;70.90
21425;DHT22;10873;51.132;16.848;2022-08-27T09:22:45;28.20;70.90
21425;DHT22;10873;51.132;16.848;2022-08-27T09:25:16;28.20;70.90
21425;DHT22;10873;51.132;16.848;2022-08-27T09:27:48;28.20;70.90
21425;DHT22;10873;51.132;16.848;2022-08-27T09:30:20;28.20;70.90
21425;DHT22;10873;51.132;16.848;2022-08-27T09:32:52;28.20;70.90
21425;DHT22;10873;51.132;16.848;2022-08-27T09:35:20;28.20;71.00
21425;DHT22;10873;51.132;16.848;2022-08-27T09:37:51;28.20;71.00
21425;DHT22;10873;51.132;16.848;2022-08-27T09:40:23;28.20;71.00
21425;DHT22;10873;51.132;16.848;2022-08-27T09:42:53;28.20;71.00
21425;DHT22;10873;51.132;16.848;2022-08-27T09:45:23;28.20;71.10
21425;DHT22;10873;51.132;16.848;2022-08-27T09:47:51;28.20;71.10
21425;DHT22;10873;51.132;16.848;2022-08-27T09:50:21;28.20;71.10
21425;DHT22;10873;51.132;16.848;2022-08-27T09:52:51;28.20;71.10
21425;DHT22;10873;51.132;16.848;2022-08-27T09:55:34;28.20;71.10
21425;DHT22;10873;51.132;16.848;2022-08-27T09:58:05;28.20;71.10
21425;DHT22;10873;51.132;16.848;2022-08-27T10:00:36;28.20;71.10
21425;DHT22;10873;51.132;16.848;2022-08-27T10:03:03;28.20;71.10
21425;DHT22;10873;51.132;16.848;2022-08-27T10:05:34;28.20;71.10
21425;DHT22;10873;51.132;16.848;2022-08-27T10:08:05;28.20;71.10
21425;DHT22;10873;51.132;16.848;2022-08-27T10:10:42;28.20;71.10
21425;DHT22;10873;51.132;16.848;2022-08-27T10:13:17;28.20;71.10
21425;DHT22;10873;51.132;16.848;2022-08-27T10:15:54;28.20;71.10
21425;DHT22;10873;51.132;16.848;2022-08-27T10:18:29;28.20;71.10
21425;DHT22;10873;51.132;16.848;2022-08-27T10:21:02;28.20;71.20
21425;DHT22;10873;51.132;16.848;2022-08-27T10:23:36;28.20;71.20
21425;DHT22;10873;51.132;16.848;2022-08-27T10:26:10;28.20;71.20
21425;DHT22;10873;51.132;16.848;2022-08-27T10:28:53;28.20;71.20
21425;DHT22;10873;51.132;16.848;2022-08-27T10:31:28;28.20;71.20
21425;DHT22;10873;51.132;16.848;2022-08-27T10:34:07;28.20;71.20
21425;DHT22;10873;51.132;16.848;2022-08-27T10:36:43;28.20;71.20
21425;DHT22;10873;51.132;16.848;2022-08-27T10:39:18;28.20;71.20
21425;DHT22;10873;51.132;16.848;2022-08-27T10:41:55;28.20;71.30
21425;DHT22;10873;51.132;16.848;2022-08-27T10:44:43;28.20;71.20
21425;DHT22;10873;51.132;16.848;2022-08-27T10:47:24;28.20;71.30
21425;DHT22;10873;51.132;16.848;2022-08-27T10:49:59;28.20;71.30
21425;DHT22;10873;51.132;16.848;2022-08-27T10:52:30;28.20;71.20
21425;DHT22;10873;51.132;16.848;2022-08-27T10:55:02;28.20;71.30
21425;DHT22;10873;51.132;16.848;2022-08-27T10:57:42;28.20;71.30
21425;DHT22;10873;51.132;16.848;2022-08-27T11:00:16;28.20;71.30
21425;DHT22;10873;51.132;16.848;2022-08-27T11:02:49;28.20;71.30
21425;DHT22;10873;51.132;16.848;2022-08-27T11:05:19;28.20;71.30
21425;DHT22;10873;51.132;16.848;2022-08-27T11:07:50;28.20;71.30
21425;DHT22;10873;51.132;16.848;2022-08-27T11:10:22;28.20;71.30
21425;DHT22;10873;51.132;16.848;2022-08-27T11:12:53;28.20;71.30
21425;DHT22;10873;51.132;16.848;2022-08-27T11:15:24;28.20;71.30
21425;DHT22;10873;51.132;16.848;2022-08-27T11:17:56;28.20;71.40
21425;DHT22;10873;51.132;16.848;2022-08-27T11:20:27;28.20;71.30
21425;DHT22;10873;51.132;16.848;2022-08-27T11:22:56;28.20;71.30
21425;DHT22;10873;51.132;16.848;2022-08-27T11:25:44;28.20;71.30
21425;DHT22;10873;51.132;16.848;2022-08-27T11:28:17;28.20;71.30
21425;DHT22;10873;51.132;16.848;2022-08-27T11:30:54;28.20;71.30
21425;DHT22;10873;51.132;16.848;2022-08-27T11:33:25;28.20;71.30
21425;DHT22;10873;51.132;16.848;2022-08-27T11:36:20;28.20;71.30
21425;DHT22;10873;51.132;16.848;2022-08-27T11:38:53;28.20;71.30
21425;DHT22;10873;51.132;16.848;2022-08-27T11:42:00;28.20;71.30
21425;DHT22;10873;51.132;16.848;2022-08-27T11:44:29;28.20;71.30
21425;DHT22;10873;51.132;16.848;2022-08-27T11:47:07;28.20;71.30
21425;DHT22;10873;51.132;16.848;2022-08-27T11:49:42;28.20;71.30
21425;DHT22;10873;51.132;16.848;2022-08-27T11:52:09;28.20;71.30
21425;DHT22;10873;51.132;16.848;2022-08-27T11:54:45;28.20;71.30
21425;DHT22;10873;51.132;16.848;2022-08-27T11:57:25;28.20;71.30
21425;DHT22;10873;51.132;16.848;2022-08-27T11:59:52;28.20;71.30
21425;DHT22;10873;51.132;16.848;2022-08-27T12:02:24;28.20;71.30
21425;DHT22;10873;51.132;16.848;2022-08-27T12:04:51;28.20;71.30
21425;DHT22;10873;51.132;16.848;2022-08-27T12:07:32;28.20;71.30
21425;DHT22;10873;51.132;16.848;2022-08-27T12:10:17;28.20;71.40
21425;DHT22;10873;51.132;16.848;2022-08-27T12:12:53;28.20;71.30
21425;DHT22;10873;51.132;16.848;2022-08-27T12:15:29;28.20;71.30
21425;DHT22;10873;51.132;16.848;2022-08-27T12:18:20;28.20;71.30
21425;DHT22;10873;51.132;16.848;2022-08-27T12:20:56;28.20;71.30
21425;DHT22;10873;51.132;16.848;2022-08-27T12:23:29;28.20;71.30
21425;DHT22;10873;51.132;16.848;2022-08-27T12:26:26;28.20;71.30
21425;DHT22;10873;51.132;16.848;2022-08-27T12:31:43;28.20;71.30
21425;DHT22;10873;51.132;16.848;2022-08-27T12:34:18;28.20;71.30
21425;DHT22;10873;51.132;16.848;2022-08-27T12:36:48;28.20;71.30
21425;DHT22;10873;51.132;16.848;2022-08-27T12:39:17;28.20;71.30
21425;DHT22;10873;51.132;16.848;2022-08-27T12:41:45;28.20;72.10
21425;DHT22;10873;51.132;16.848;2022-08-27T12:44:14;28.20;71.30
21425;DHT22;10873;51.132;16.848;2022-08-27T12:46:47;28.20;71.30
21425;DHT22;10873;51.132;16.848;2022-08-27T12:49:18;28.20;71.40
21425;DHT22;10873;51.132;16.848;2022-08-27T12:51:46;28.20;71.40
21425;DHT22;10873;51.132;16.848;2022-08-27T12:54:24;28.20;71.30
21425;DHT22;10873;51.132;16.848;2022-08-27T12:56:59;28.20;71.40
21425;DHT22;10873;51.132;16.848;2022-08-27T12:59:45;28.20;71.30
21425;DHT22;10873;51.132;16.848;2022-08-27T13:02:30;28.20;72.20
21425;DHT22;10873;51.132;16.848;2022-08-27T13:05:03;28.20;71.40
21425;DHT22;10873;51.132;16.848;2022-08-27T13:07:37;28.20;71.30
21425;DHT22;10873;51.132;16.848;2022-08-27T13:10:08;28.20;71.30
21425;DHT22;10873;51.132;16.848;2022-08-27T13:12:35;28.20;71.30
21425;DHT22;10873;51.132;16.848;2022-08-27T13:15:05;28.20;71.30
21425;DHT22;10873;51.132;16.848;2022-08-27T13:17:37;28.20;71.30
21425;DHT22;10873;51.132;16.848;2022-08-27T13:20:13;28.20;71.30
21425;DHT22;10873;51.132;16.848;2022-08-27T13:22:40;28.20;71.30
21425;DHT22;10873;51.132;16.848;2022-08-27T13:25:19;28.20;71.30
21425;DHT22;10873;51.132;16.848;2022-08-27T13:27:51;28.20;71.40
21425;DHT22;10873;51.132;16.848;2022-08-27T13:30:18;28.20;71.40
21425;DHT22;10873;51.132;16.848;2022-08-27T13:32:45;28.20;71.30
21425;DHT22;10873;51.132;16.848;2022-08-27T13:35:12;28.20;71.90
21425;DHT22;10873;51.132;16.848;2022-08-27T13:37:42;28.20;71.40
21425;DHT22;10873;51.132;16.848;2022-08-27T13:40:12;28.20;71.30
21425;DHT22;10873;51.132;16.848;2022-08-27T13:42:47;28.20;71.40
21425;DHT22;10873;51.132;16.848;2022-08-27T13:45:16;28.20;71.40
21425;DHT22;10873;51.132;16.848;2022-08-27T13:47:46;28.20;71.40
21425;DHT22;10873;51.132;16.848;2022-08-27T13:50:20;28.20;71.40
21425;DHT22;10873;51.132;16.848;2022-08-27T13:52:47;28.20;71.40
21425;DHT22;10873;51.132;16.848;2022-08-27T13:55:32;28.20;71.50
21425;DHT22;10873;51.132;16.848;2022-08-27T13:57:59;28.20;71.40
21425;DHT22;10873;51.132;16.848;2022-08-27T14:00:27;28.20;71.40
21425;DHT22;10873;51.132;16.848;2022-08-27T14:02:54;28.20;71.40
21425;DHT22;10873;51.132;16.848;2022-08-27T14:05:29;28.20;71.50
21425;DHT22;10873;51.132;16.848;2022-08-27T14:07:58;28.20;71.50
21425;DHT22;10873;51.132;16.848;2022-08-27T14:10:31;28.20;71.50
21425;DHT22;10873;51.132;16.848;2022-08-27T14:13:00;28.20;71.50
21425;DHT22;10873;51.132;16.848;2022-08-27T14:15:31;28.20;71.50
21425;DHT22;10873;51.132;16.848;2022-08-27T14:17:58;28.20;71.50
21425;DHT22;10873;51.132;16.848;2022-08-27T14:20:26;28.20;71.50
21425;DHT22;10873;51.132;16.848;2022-08-27T14:22:53;28.20;71.50
21425;DHT22;10873;51.132;16.848;2022-08-27T14:25:19;28.20;71.50
21425;DHT22;10873;51.132;16.848;2022-08-27T14:27:46;28.20;71.50
21425;DHT22;10873;51.132;16.848;2022-08-27T14:30:15;28.20;71.50
21425;DHT22;10873;51.132;16.848;2022-08-27T14:32:41;28.20;71.50
21425;DHT22;10873;51.132;16.848;2022-08-27T14:35:10;28.20;71.50
21425;DHT22;10873;51.132;16.848;2022-08-27T14:37:38;28.20;71.50
21425;DHT22;10873;51.132;16.848;2022-08-27T14:40:06;28.20;71.60
21425;DHT22;10873;51.132;16.848;2022-08-27T14:42:33;28.20;71.50
21425;DHT22;10873;51.132;16.848;2022-08-27T14:44:59;28.20;71.60
21425;DHT22;10873;51.132;16.848;2022-08-27T14:47:26;28.10;71.50
21425;DHT22;10873;51.132;16.848;2022-08-27T14:49:52;28.10;71.50
21425;DHT22;10873;51.132;16.848;2022-08-27T14:52:18;28.10;71.50
21425;DHT22;10873;51.132;16.848;2022-08-27T14:54:46;28.10;71.50
21425;DHT22;10873;51.132;16.848;2022-08-27T14:57:12;28.10;71.70
21425;DHT22;10873;51.132;16.848;2022-08-27T14:59:38;28.10;71.50
21425;DHT22;10873;51.132;16.848;2022-08-27T15:02:07;28.10;71.60
21425;DHT22;10873;51.132;16.848;2022-08-27T15:04:34;28.10;71.60
21425;DHT22;10873;51.132;16.848;2022-08-27T15:07:00;28.10;71.60
21425;DHT22;10873;51.132;16.848;2022-08-27T15:09:27;28.10;71.60
21425;DHT22;10873;51.132;16.848;2022-08-27T15:11:55;28.10;71.60
21425;DHT22;10873;51.132;16.848;2022-08-27T15:14:24;28.10;71.60
21425;DHT22;10873;51.132;16.848;2022-08-27T15:16:51;28.10;71.60
21425;DHT22;10873;51.132;16.848;2022-08-27T15:19:19;28.20;71.60
21425;DHT22;10873;51.132;16.848;2022-08-27T15:21:46;28.10;71.60
21425;DHT22;10873;51.132;16.848;2022-08-27T15:24:17;28.10;71.60
21425;DHT22;10873;51.132;16.848;2022-08-27T15:26:44;28.10;71.60
21425;DHT22;10873;51.132;16.848;2022-08-27T15:29:12;28.10;71.70
21425;DHT22;10873;51.132;16.848;2022-08-27T15:31:39;28.10;71.70
21425;DHT22;10873;51.132;16.848;2022-08-27T15:34:06;28.10;71.60
21425;DHT22;10873;51.132;16.848;2022-08-27T15:36:33;28.10;71.70
21425;DHT22;10873;51.132;16.848;2022-08-27T15:38:59;28.10;71.70
21425;DHT22;10873;51.132;16.848;2022-08-27T15:41:26;28.10;71.70
21425;DHT22;10873;51.132;16.848;2022-08-27T15:43:52;28.10;71.70
21425;DHT22;10873;51.132;16.848;2022-08-27T15:46:20;28.20;71.70
21425;DHT22;10873;51.132;16.848;2022-08-27T15:48:46;28.10;71.60